sensor_id;sensor_type;location;lat;lon;timestamp;pressure;altitude;pressure_sealevel;temperature;humidity
929;BME280;451;47.988;7.842;2023-02-12T00:08:01;100458.97;;;0.70;100.00
929;BME280;451;47.988;7.842;2023-02-12T00:17:04;100461.22;;;0.79;100.00
929;BME280;451;47.988;7.842;2023-02-12T00:26:10;100452.94;;;0.70;100.00
929;BME280;451;47.988;7.842;2023-02-12T00:35:19;100459.16;;;0.66;100.00
929;BME280;451;47.988;7.842;2023-02-12T00:44:26;100464.41;;;0.86;100.00
929;BME280;451;47.988;7.842;2023-02-12T00:53:30;100447.97;;;1.09;100.00
929;BME280;451;47.988;7.842;2023-02-12T01:02:35;100453.19;;;1.07;100.00
929;BME280;451;47.988;7.842;2023-02-12T01:11:38;100458.31;;;1.09;100.00
929;BME280;451;47.988;7.842;2023-02-12T01:20:42;100458.31;;;1.09;98.94
929;BME280;451;47.988;7.842;2023-02-12T01:29:45;100462.06;;;0.80;99.63
929;BME280;451;47.988;7.842;2023-02-12T01:38:51;100330.53;;;0.03;99.19
929;BME280;451;47.988;7.842;2023-02-12T01:47:54;100442.03;;;0.85;100.00
929;BME280;451;47.988;7.842;2023-02-12T01:56:59;100430.94;;;0.60;100.00
929;BME280;451;47.988;7.842;2023-02-12T02:06:07;100395.91;;;0.51;100.00
929;BME280;451;47.988;7.842;2023-02-12T02:15:15;100447.78;;;0.70;100.00
929;BME280;451;47.988;7.842;2023-02-12T02:24:39;100442.19;;;0.59;100.00
929;BME280;451;47.988;7.842;2023-02-12T02:33:53;100448.16;;;0.61;100.00
929;BME280;451;47.988;7.842;2023-02-12T02:43:00;100447.41;;;0.57;100.00
929;BME280;451;47.988;7.842;2023-02-12T02:52:08;100426.03;;;0.30;100.00
929;BME280;451;47.988;7.842;2023-02-12T03:01:15;100423.69;;;0.24;100.00
929;BME280;451;47.988;7.842;2023-02-12T03:10:24;100440.28;;;0.40;100.00
929;BME280;451;47.988;7.842;2023-02-12T03:19:32;100421.75;;;0.29;100.00
929;BME280;451;47.988;7.842;2023-02-12T03:28:38;100428.63;;;0.30;100.00
929;BME280;451;47.988;7.842;2023-02-12T03:37:46;100331.19;;;-0.14;100.00
929;BME280;451;47.988;7.842;2023-02-12T03:47:00;100422.81;;;0.24;100.00
929;BME280;451;47.988;7.842;2023-02-12T03:56:11;100304.84;;;-0.95;100.00
929;BME280;451;47.988;7.842;2023-02-12T04:05:19;100436.97;;;0.14;100.00
929;BME280;451;47.988;7.842;2023-02-12T04:14:28;100351.50;;;-0.28;100.00
929;BME280;451;47.988;7.842;2023-02-12T04:23:42;100443.38;;;0.27;100.00
929;BME280;451;47.988;7.842;2023-02-12T04:32:49;100405.41;;;-0.43;100.00
929;BME280;451;47.988;7.842;2023-02-12T04:41:58;100455.63;;;-0.02;100.00
929;BME280;451;47.988;7.842;2023-02-12T04:51:01;100363.56;;;-0.52;100.00
929;BME280;451;47.988;7.842;2023-02-12T05:00:08;100428.00;;;-0.24;100.00
929;BME280;451;47.988;7.842;2023-02-12T05:09:14;100419.50;;;-0.03;100.00
929;BME280;451;47.988;7.842;2023-02-12T05:18:18;100371.56;;;-0.35;100.00
929;BME280;451;47.988;7.842;2023-02-12T05:27:21;100434.56;;;0.09;100.00
929;BME280;451;47.988;7.842;2023-02-12T05:36:26;100389.72;;;-0.13;100.00
929;BME280;451;47.988;7.842;2023-02-12T05:45:31;100425.88;;;0.12;100.00
929;BME280;451;47.988;7.842;2023-02-12T05:54:35;100422.53;;;0.08;100.00
929;BME280;451;47.988;7.842;2023-02-12T06:03:38;100427.84;;;0.05;100.00
929;BME280;451;47.988;7.842;2023-02-12T06:12:42;100433.09;;;0.02;100.00
929;BME280;451;47.988;7.842;2023-02-12T06:21:46;100365.53;;;-0.35;100.00
929;BME280;451;47.988;7.842;2023-02-12T06:30:50;100421.63;;;-0.14;100.00
929;BME280;451;47.988;7.842;2023-02-12T06:39:54;100401.31;;;-0.25;100.00
929;BME280;451;47.988;7.842;2023-02-12T06:49:14;100422.97;;;-0.04;100.00
929;BME280;451;47.988;7.842;2023-02-12T06:58:17;100421.28;;;-0.05;100.00
929;BME280;451;47.988;7.842;2023-02-12T07:07:22;100433.09;;;0.02;100.00
929;BME280;451;47.988;7.842;2023-02-12T07:16:25;100449.97;;;0.12;100.00
929;BME280;451;47.988;7.842;2023-02-12T07:25:30;100439.19;;;0.24;100.00
929;BME280;451;47.988;7.842;2023-02-12T07:34:33;100447.88;;;0.45;100.00
929;BME280;451;47.988;7.842;2023-02-12T07:43:38;100453.50;;;0.78;100.00
929;BME280;451;47.988;7.842;2023-02-12T07:52:41;100450.53;;;1.31;100.00
929;BME280;451;47.988;7.842;2023-02-12T08:01:46;100452.41;;;1.47;100.00
929;BME280;451;47.988;7.842;2023-02-12T08:10:50;100448.63;;;1.95;99.88
929;BME280;451;47.988;7.842;2023-02-12T08:19:54;100455.16;;;2.61;98.64
929;BME280;451;47.988;7.842;2023-02-12T08:28:59;100373.94;;;2.22;97.00
929;BME280;451;47.988;7.842;2023-02-12T08:38:04;100450.38;;;3.93;91.72
929;BME280;451;47.988;7.842;2023-02-12T08:47:07;100447.00;;;3.91;92.57
929;BME280;451;47.988;7.842;2023-02-12T08:56:13;100432.28;;;4.87;86.05
929;BME280;451;47.988;7.842;2023-02-12T09:05:17;100415.75;;;5.18;84.20
929;BME280;451;47.988;7.842;2023-02-12T09:14:21;100417.41;;;5.49;82.10
929;BME280;451;47.988;7.842;2023-02-12T09:23:24;100414.59;;;5.96;81.97
929;BME280;451;47.988;7.842;2023-02-12T09:32:29;100424.50;;;6.05;80.54
929;BME280;451;47.988;7.842;2023-02-12T09:41:43;100326.47;;;5.28;79.09
929;BME280;451;47.988;7.842;2023-02-12T09:50:54;100423.00;;;6.15;77.54
929;BME280;451;47.988;7.842;2023-02-12T10:00:02;100425.75;;;6.40;79.59
929;BME280;451;47.988;7.842;2023-02-12T10:09:30;100386.13;;;6.34;79.95
929;BME280;451;47.988;7.842;2023-02-12T10:18:47;100379.44;;;6.57;77.60
929;BME280;451;47.988;7.842;2023-02-12T10:27:59;100418.22;;;7.04;76.67
929;BME280;451;47.988;7.842;2023-02-12T10:37:08;100420.66;;;7.59;73.09
929;BME280;451;47.988;7.842;2023-02-12T10:46:16;100401.47;;;7.06;74.85
929;BME280;451;47.988;7.842;2023-02-12T10:55:27;100373.75;;;7.68;71.55
929;BME280;451;47.988;7.842;2023-02-12T11:04:32;100380.63;;;8.20;69.25
929;BME280;451;47.988;7.842;2023-02-12T11:13:36;100391.53;;;7.89;70.92
929;BME280;451;47.988;7.842;2023-02-12T11:22:50;100368.88;;;8.13;70.01
929;BME280;451;47.988;7.842;2023-02-12T11:31:59;100343.34;;;8.77;68.48
929;BME280;451;47.988;7.842;2023-02-12T11:41:21;100331.78;;;9.03;65.86
929;BME280;451;47.988;7.842;2023-02-12T11:50:27;100282.81;;;8.80;65.64
929;BME280;451;47.988;7.842;2023-02-12T11:59:34;100270.31;;;8.83;65.30
929;BME280;451;47.988;7.842;2023-02-12T12:08:42;100314.44;;;9.36;65.02
929;BME280;451;47.988;7.842;2023-02-12T12:17:52;100304.69;;;9.71;64.60
929;BME280;451;47.988;7.842;2023-02-12T12:27:19;100312.44;;;8.93;68.00
929;BME280;451;47.988;7.842;2023-02-12T12:36:58;100304.09;;;9.79;66.64
929;BME280;451;47.988;7.842;2023-02-12T12:46:30;100296.66;;;10.28;65.02
929;BME280;451;47.988;7.842;2023-02-12T12:56:04;100296.09;;;9.91;66.42
929;BME280;451;47.988;7.842;2023-02-12T13:14:57;100278.53;;;10.03;69.19
929;BME280;451;47.988;7.842;2023-02-12T13:24:06;100258.78;;;10.20;68.77
929;BME280;451;47.988;7.842;2023-02-12T13:33:19;100255.72;;;10.78;67.88
929;BME280;451;47.988;7.842;2023-02-12T13:42:38;100258.19;;;10.16;71.21
929;BME280;451;47.988;7.842;2023-02-12T13:51:48;100229.13;;;10.81;69.67
929;BME280;451;47.988;7.842;2023-02-12T14:00:56;100233.97;;;10.56;70.48
929;BME280;451;47.988;7.842;2023-02-12T14:10:04;100222.34;;;10.58;70.43
929;BME280;451;47.988;7.842;2023-02-12T14:19:38;100228.03;;;10.42;72.49
929;BME280;451;47.988;7.842;2023-02-12T14:28:48;100211.47;;;11.44;69.63
929;BME280;451;47.988;7.842;2023-02-12T14:37:52;100133.25;;;10.65;71.62
929;BME280;451;47.988;7.842;2023-02-12T14:46:58;100206.91;;;11.16;70.93
929;BME280;451;47.988;7.842;2023-02-12T14:56:04;100205.03;;;11.27;71.31
929;BME280;451;47.988;7.842;2023-02-12T15:05:15;100180.09;;;11.31;71.58
929;BME280;451;47.988;7.842;2023-02-12T15:14:24;100192.06;;;11.45;71.92
929;BME280;451;47.988;7.842;2023-02-12T15:23:37;100120.75;;;10.87;72.20
929;BME280;451;47.988;7.842;2023-02-12T15:32:41;100208.69;;;11.36;70.85
929;BME280;451;47.988;7.842;2023-02-12T15:41:48;100091.00;;;10.36;72.03
929;BME280;451;47.988;7.842;2023-02-12T15:50:53;100151.44;;;10.57;73.97
929;BME280;451;47.988;7.842;2023-02-12T16:00:03;100212.66;;;10.79;74.49
929;BME280;451;47.988;7.842;2023-02-12T16:09:16;100226.75;;;10.26;77.33
929;BME280;451;47.988;7.842;2023-02-12T16:18:25;100215.59;;;9.90;77.44
929;BME280;451;47.988;7.842;2023-02-12T16:27:29;100234.25;;;9.20;79.51
929;BME280;451;47.988;7.842;2023-02-12T16:36:35;100216.06;;;8.84;80.56
929;BME280;451;47.988;7.842;2023-02-12T16:45:47;100224.66;;;8.27;83.90
929;BME280;451;47.988;7.842;2023-02-12T16:54:52;100212.75;;;7.50;89.08
929;BME280;451;47.988;7.842;2023-02-12T17:03:56;100231.84;;;7.27;91.01
929;BME280;451;47.988;7.842;2023-02-12T17:13:01;100224.31;;;7.10;93.05
929;BME280;451;47.988;7.842;2023-02-12T17:22:04;100222.88;;;6.93;95.77
929;BME280;451;47.988;7.842;2023-02-12T17:31:10;100241.03;;;6.82;97.77
929;BME280;451;47.988;7.842;2023-02-12T17:40:13;100219.03;;;6.59;98.06
929;BME280;451;47.988;7.842;2023-02-12T17:49:18;100212.59;;;5.98;100.00
929;BME280;451;47.988;7.842;2023-02-12T17:58:21;100251.66;;;6.27;100.00
929;BME280;451;47.988;7.842;2023-02-12T18:07:25;100203.72;;;5.46;100.00
929;BME280;451;47.988;7.842;2023-02-12T18:16:30;100256.41;;;5.65;100.00
929;BME280;451;47.988;7.842;2023-02-12T18:25:38;100258.66;;;5.57;100.00
929;BME280;451;47.988;7.842;2023-02-12T18:34:42;100265.09;;;5.51;100.00
929;BME280;451;47.988;7.842;2023-02-12T18:43:47;100259.78;;;5.39;100.00
929;BME280;451;47.988;7.842;2023-02-12T18:52:50;100256.44;;;5.37;100.00
929;BME280;451;47.988;7.842;2023-02-12T19:01:54;100254.72;;;5.07;100.00
929;BME280;451;47.988;7.842;2023-02-12T19:10:57;100253.06;;;5.06;100.00
929;BME280;451;47.988;7.842;2023-02-12T19:20:02;100258.03;;;4.81;100.00
929;BME280;451;47.988;7.842;2023-02-12T19:29:05;100264.41;;;4.91;100.00
929;BME280;451;47.988;7.842;2023-02-12T19:38:09;100269.88;;;4.57;100.00
929;BME280;451;47.988;7.842;2023-02-12T19:47:12;100272.44;;;4.42;100.00
929;BME280;451;47.988;7.842;2023-02-12T19:56:18;100265.13;;;4.33;100.00
929;BME280;451;47.988;7.842;2023-02-12T20:05:21;100208.88;;;3.85;100.00
929;BME280;451;47.988;7.842;2023-02-12T20:14:25;100268.25;;;4.09;100.00
929;BME280;451;47.988;7.842;2023-02-12T20:23:28;100274.16;;;4.12;100.00
929;BME280;451;47.988;7.842;2023-02-12T20:32:33;100278.75;;;3.76;100.00
929;BME280;451;47.988;7.842;2023-02-12T20:41:37;100301.16;;;3.94;100.00
929;BME280;451;47.988;7.842;2023-02-12T20:50:41;100299.47;;;3.61;100.00
929;BME280;451;47.988;7.842;2023-02-12T20:59:44;100295.75;;;3.65;100.00
929;BME280;451;47.988;7.842;2023-02-12T21:08:49;100298.63;;;3.61;100.00
929;BME280;451;47.988;7.842;2023-02-12T21:17:52;100246.56;;;3.12;100.00
929;BME280;451;47.988;7.842;2023-02-12T21:26:56;100307.69;;;3.19;100.00
929;BME280;451;47.988;7.842;2023-02-12T21:36:02;100297.94;;;3.24;100.00
929;BME280;451;47.988;7.842;2023-02-12T21:45:07;100299.84;;;3.21;100.00
929;BME280;451;47.988;7.842;2023-02-12T21:54:12;100306.28;;;2.79;100.00
929;BME280;451;47.988;7.842;2023-02-12T22:03:17;100280.25;;;2.98;100.00
929;BME280;451;47.988;7.842;2023-02-12T22:12:20;100298.78;;;3.08;100.00
929;BME280;451;47.988;7.842;2023-02-12T22:21:27;100258.00;;;2.93;100.00
929;BME280;451;47.988;7.842;2023-02-12T22:30:30;100310.09;;;2.90;100.00
929;BME280;451;47.988;7.842;2023-02-12T22:39:35;100285.72;;;2.75;100.00
929;BME280;451;47.988;7.842;2023-02-12T22:48:38;100302.97;;;2.59;100.00
929;BME280;451;47.988;7.842;2023-02-12T22:57:43;100304.59;;;2.61;100.00
929;BME280;451;47.988;7.842;2023-02-12T23:06:46;100274.59;;;2.56;100.00
929;BME280;451;47.988;7.842;2023-02-12T23:15:50;100318.97;;;3.03;100.00
929;BME280;451;47.988;7.842;2023-02-12T23:24:55;100331.94;;;2.68;100.00
929;BME280;451;47.988;7.842;2023-02-12T23:33:59;100339.88;;;2.65;100.00
929;BME280;451;47.988;7.842;2023-02-12T23:43:02;100345.16;;;2.45;100.00
929;BME280;451;47.988;7.842;2023-02-12T23:52:07;100342.31;;;2.68;100.00
